Time;durP1;ratioP1;P1;durP2;ratioP2;P2;SDS_P1;SDS_P2;PMS_P1;PMS_P2;Temp;Humidity;BMP_temperature;BMP_pressure;BME280_temperature;BME280_humidity;BME280_pressure;Samples;Min_cycle;Max_cycle;Signal;HPM_P1;HPM_P2
2022/08/16 00:02:22;;;;;;;0.20;0.10;;;24.60;99.90;;;;;;26173613;22;20183;-68
2022/08/16 00:12:26;;;;;;;0.20;0.00;;;24.40;99.90;;;;;;26174054;22;20237;-69
2022/08/16 00:22:31;;;;;;;0.20;0.00;;;24.40;99.90;;;;;;26172833;22;20192;-68
2022/08/16 00:32:36;;;;;;;0.20;0.00;;;24.40;99.90;;;;;;26173918;22;20151;-67
2022/08/16 00:42:42;;;;;;;0.20;0.00;;;24.40;99.90;;;;;;26145992;22;20183;-70
2022/08/16 00:52:48;;;;;;;0.20;0.00;;;24.40;99.90;;;;;;26144514;22;20159;-68
2022/08/16 01:02:56;;;;;;;0.20;0.00;;;24.30;99.90;;;;;;26171596;22;20239;-69
2022/08/16 01:13:06;;;;;;;0.20;0.00;;;24.20;99.90;;;;;;26142315;22;20200;-69
2022/08/16 01:23:17;;;;;;;0.20;0.00;;;24.10;99.90;;;;;;26172044;22;20210;-68
2022/08/16 01:33:23;;;;;;;0.20;0.00;;;24.10;99.90;;;;;;26171918;22;20171;-68
2022/08/16 01:43:38;;;;;;;0.20;0.00;;;24.10;99.90;;;;;;26171571;22;20194;-69
2022/08/16 01:53:43;;;;;;;0.20;0.00;;;24.20;99.90;;;;;;26144202;22;20174;-69
2022/08/16 02:03:57;;;;;;;0.20;0.10;;;24.30;99.90;;;;;;26170408;22;20184;-68
2022/08/16 02:14:16;;;;;;;0.20;0.00;;;24.20;99.90;;;;;;26170140;22;20206;-67
2022/08/16 02:24:23;;;;;;;0.20;0.00;;;24.20;99.90;;;;;;26170075;22;20155;-68
2022/08/16 02:34:36;;;;;;;0.20;0.00;;;24.00;99.90;;;;;;26166839;22;20239;-68
2022/08/16 02:44:43;;;;;;;0.20;0.00;;;24.00;99.90;;;;;;26168978;22;20159;-67
2022/08/16 02:54:49;;;;;;;0.20;0.00;;;23.90;99.90;;;;;;26169089;22;20194;-68
2022/08/16 03:04:58;;;;;;;0.20;0.00;;;23.80;99.90;;;;;;26168738;22;20228;-69
2022/08/16 03:15:03;;;;;;;0.20;0.00;;;23.70;99.90;;;;;;26150194;22;20203;-68
2022/08/16 03:25:10;;;;;;;0.20;0.00;;;23.70;99.90;;;;;;26175540;22;20167;-68
2022/08/16 03:35:16;;;;;;;0.20;0.00;;;23.70;99.90;;;;;;26150230;22;20179;-69
2022/08/16 03:45:22;;;;;;;0.20;0.00;;;23.90;99.90;;;;;;26173741;22;20176;-70
2022/08/16 03:55:35;;;;;;;0.20;0.00;;;23.70;99.90;;;;;;26171878;22;20230;-69
2022/08/16 04:05:50;;;;;;;0.20;0.00;;;23.90;99.90;;;;;;26173499;22;20191;-68
2022/08/16 04:15:58;;;;;;;0.20;0.00;;;23.90;99.90;;;;;;26147536;22;20207;-69
2022/08/16 04:26:03;;;;;;;0.20;0.00;;;23.80;99.90;;;;;;26170832;22;20178;-70
2022/08/16 04:36:10;;;;;;;0.20;0.00;;;23.80;99.90;;;;;;26144437;22;20180;-70
2022/08/16 04:46:22;;;;;;;0.20;0.00;;;23.80;99.90;;;;;;26121394;22;20179;-70
2022/08/16 04:56:47;;;;;;;0.20;0.00;;;23.70;99.90;;;;;;26170795;22;20188;-69
2022/08/16 05:06:52;;;;;;;0.20;0.00;;;23.70;99.90;;;;;;26170443;22;20194;-71
2022/08/16 05:16:58;;;;;;;0.20;0.00;;;23.60;99.90;;;;;;26170503;22;20201;-70
2022/08/16 05:27:02;;;;;;;0.20;0.00;;;23.60;99.90;;;;;;26142937;22;20171;-74
2022/08/16 05:37:15;;;;;;;0.20;0.00;;;23.70;99.90;;;;;;26138825;22;20185;-70
2022/08/16 05:47:26;;;;;;;0.20;0.00;;;23.90;99.90;;;;;;26168895;22;20172;-69
2022/08/16 05:57:34;;;;;;;0.20;0.00;;;24.00;99.90;;;;;;26168146;22;20175;-68
2022/08/16 06:07:38;;;;;;;0.20;0.00;;;24.30;99.90;;;;;;26141870;22;20187;-68
2022/08/16 06:17:44;;;;;;;0.20;0.10;;;24.70;99.90;;;;;;26168882;22;20206;-68
2022/08/16 06:27:48;;;;;;;0.20;0.05;;;25.00;99.90;;;;;;26165680;22;20690;-68
2022/08/16 06:38:01;;;;;;;0.20;0.00;;;25.50;99.90;;;;;;26139805;22;20187;-68
2022/08/16 06:48:05;;;;;;;0.20;0.00;;;25.80;99.90;;;;;;26172070;22;20163;-69
2022/08/16 06:58:10;;;;;;;0.20;0.00;;;26.30;99.90;;;;;;26145731;22;20272;-69
2022/08/16 07:08:25;;;;;;;0.20;0.00;;;26.50;99.90;;;;;;26145916;22;20179;-67
2022/08/16 07:18:31;;;;;;;0.20;0.00;;;26.60;99.90;;;;;;26121256;22;20211;-69
2022/08/16 07:28:35;;;;;;;0.20;0.00;;;26.40;99.90;;;;;;26170526;22;20174;-69
2022/08/16 07:38:40;;;;;;;0.20;0.00;;;26.50;99.90;;;;;;26143263;22;20194;-67
2022/08/16 07:48:44;;;;;;;0.20;0.00;;;26.50;99.90;;;;;;26171232;22;20178;-68
2022/08/16 07:58:51;;;;;;;0.20;0.00;;;26.70;99.90;;;;;;26172947;22;20290;-68
2022/08/16 08:09:01;;;;;;;0.20;0.10;;;26.70;99.90;;;;;;26168416;22;20246;-69
2022/08/16 08:19:07;;;;;;;0.20;0.00;;;26.90;99.90;;;;;;26140566;22;20191;-68
2022/08/16 08:29:12;;;;;;;0.20;0.00;;;26.90;99.90;;;;;;26141378;22;20163;-69
2022/08/16 08:39:26;;;;;;;0.20;0.00;;;27.10;99.90;;;;;;26169295;22;20187;-69
2022/08/16 08:49:31;;;;;;;0.20;0.10;;;27.30;99.90;;;;;;26142538;22;20164;-71
2022/08/16 08:59:57;;;;;;;0.20;0.10;;;27.60;99.90;;;;;;26165588;22;20202;-69
2022/08/16 09:10:02;;;;;;;0.20;0.00;;;27.90;99.90;;;;;;26137843;22;20202;-69
2022/08/16 09:20:24;;;;;;;0.20;0.00;;;28.20;99.90;;;;;;26140199;22;20187;-69
2022/08/16 09:30:28;;;;;;;0.20;0.00;;;28.60;99.90;;;;;;26166624;22;20235;-70
2022/08/16 09:40:47;;;;;;;0.20;0.00;;;28.60;99.90;;;;;;26113526;22;20194;-69
2022/08/16 09:50:51;;;;;;;0.20;0.00;;;28.80;99.90;;;;;;26167167;22;20163;-69
2022/08/16 10:00:59;;;;;;;0.20;0.00;;;29.50;99.90;;;;;;26168218;22;20240;-69
2022/08/16 10:21:29;;;;;;;0.20;0.00;;;29.70;99.90;;;;;;26172471;22;20195;-70
2022/08/16 10:31:34;;;;;;;0.20;0.00;;;31.10;99.90;;;;;;26174857;22;20167;-70
2022/08/16 10:41:49;;;;;;;0.20;0.00;;;30.00;99.90;;;;;;26173003;22;20214;-70
2022/08/16 10:51:54;;;;;;;0.20;0.00;;;29.00;99.90;;;;;;26173247;22;20207;-70
2022/08/16 11:02:06;;;;;;;0.20;0.00;;;28.80;99.90;;;;;;26171893;22;20190;-70
2022/08/16 11:12:29;;;;;;;0.20;0.00;;;30.50;99.90;;;;;;26168614;22;20259;-70
2022/08/16 11:22:36;;;;;;;0.20;0.00;;;30.20;99.90;;;;;;26142611;22;20195;-69
2022/08/16 11:32:50;;;;;;;0.20;0.00;;;30.00;99.90;;;;;;26143671;22;20159;-69
2022/08/16 11:42:56;;;;;;;0.20;0.00;;;29.50;99.90;;;;;;26171225;22;20184;-68
2022/08/16 11:53:00;;;;;;;0.20;0.10;;;29.00;99.90;;;;;;26172122;22;20163;-70
2022/08/16 12:03:07;;;;;;;0.20;0.00;;;28.70;99.90;;;;;;26141527;22;20180;-69
2022/08/16 12:13:13;;;;;;;0.20;0.00;;;28.70;99.90;;;;;;26171080;22;20202;-70
2022/08/16 12:23:19;;;;;;;0.20;0.00;;;30.70;99.90;;;;;;26169620;22;20236;-71
2022/08/16 12:33:24;;;;;;;0.20;0.00;;;31.80;99.90;;;;;;26170373;22;20175;-71
2022/08/16 12:43:30;;;;;;;0.20;0.00;;;32.20;99.90;;;;;;26142632;22;20187;-71
2022/08/16 12:53:35;;;;;;;0.20;0.00;;;31.50;99.90;;;;;;26169302;22;20147;-70
2022/08/16 13:03:44;;;;;;;0.20;0.00;;;29.60;99.90;;;;;;26141592;22;20592;-71
2022/08/16 13:13:47;;;;;;;0.20;0.00;;;30.90;99.90;;;;;;26168784;22;20199;-72
2022/08/16 13:23:58;;;;;;;0.20;0.00;;;33.60;99.90;;;;;;26140316;22;20188;-71
2022/08/16 13:34:06;;;;;;;0.20;0.00;;;34.10;99.90;;;;;;26169404;22;20167;-71
2022/08/16 13:44:13;;;;;;;0.20;0.00;;;34.60;99.90;;;;;;26140444;22;20197;-70
2022/08/16 13:54:18;;;;;;;0.20;0.00;;;34.80;99.90;;;;;;26167235;22;20217;-70
2022/08/16 14:04:24;;;;;;;0.20;0.00;;;35.00;99.90;;;;;;26137461;22;20214;-71
2022/08/16 14:14:29;;;;;;;0.20;0.00;;;34.00;99.90;;;;;;26166468;22;20191;-71
2022/08/16 14:24:37;;;;;;;0.20;0.00;;;32.50;99.90;;;;;;26164711;22;20183;-72
2022/08/16 14:34:41;;;;;;;0.20;0.20;;;33.70;99.90;;;;;;26165976;22;20160;-71
2022/08/16 14:44:48;;;;;;;0.20;0.00;;;33.80;99.90;;;;;;26165888;22;20190;-72
2022/08/16 14:54:53;;;;;;;0.20;0.00;;;30.80;99.90;;;;;;26163829;22;20168;-71
2022/08/16 15:04:59;;;;;;;0.20;0.00;;;30.20;99.90;;;;;;26170279;22;20187;-70
2022/08/16 15:15:09;;;;;;;0.20;0.00;;;30.10;99.90;;;;;;26145275;22;20202;-71
2022/08/16 15:25:22;;;;;;;0.20;0.13;;;30.30;99.90;;;;;;26167791;22;20187;-71
2022/08/16 15:35:32;;;;;;;0.20;0.00;;;29.80;99.90;;;;;;26171605;22;20192;-70
2022/08/16 15:56:01;;;;;;;0.20;0.00;;;29.00;99.90;;;;;;26142298;22;20174;-68
2022/08/16 16:06:09;;;;;;;0.20;0.00;;;28.90;99.90;;;;;;26169072;22;20199;-71
2022/08/16 16:16:17;;;;;;;0.20;0.00;;;28.90;99.90;;;;;;26170210;22;20204;-71
2022/08/16 16:26:24;;;;;;;0.20;0.00;;;28.80;99.90;;;;;;26140667;22;20263;-71
2022/08/16 16:36:33;;;;;;;0.20;0.00;;;28.90;99.90;;;;;;26166316;22;20172;-75
2022/08/16 16:46:38;;;;;;;0.20;0.00;;;29.10;99.90;;;;;;26169187;22;20163;-70
2022/08/16 16:56:46;;;;;;;0.20;0.00;;;30.10;99.90;;;;;;26168681;22;20194;-71
2022/08/16 17:06:53;;;;;;;0.20;0.00;;;29.70;99.90;;;;;;26168093;22;20198;-71
2022/08/16 17:16:59;;;;;;;0.20;0.00;;;29.70;99.90;;;;;;26164214;22;20223;-71
2022/08/16 17:27:06;;;;;;;0.20;0.00;;;30.20;99.90;;;;;;26161001;22;20178;-71
2022/08/16 17:37:11;;;;;;;0.20;0.00;;;29.40;99.90;;;;;;26133808;22;20254;-70
2022/08/16 17:47:20;;;;;;;0.20;0.00;;;30.40;99.90;;;;;;26132691;22;20172;-71
2022/08/16 17:57:24;;;;;;;0.20;0.00;;;31.40;99.90;;;;;;26161154;22;20188;-71
2022/08/16 18:07:29;;;;;;;0.20;0.00;;;30.10;99.90;;;;;;26161538;22;20187;-70
2022/08/16 18:17:33;;;;;;;0.20;0.00;;;29.40;99.90;;;;;;26047432;22;1480606;-71
2022/08/16 18:27:38;;;;;;;0.20;0.00;;;28.80;99.90;;;;;;26139694;22;20167;-69
2022/08/16 18:37:42;;;;;;;0.20;0.00;;;28.50;99.90;;;;;;26140262;22;20194;-69
2022/08/16 18:47:47;;;;;;;0.20;0.00;;;28.20;99.90;;;;;;26169265;22;20164;-69
2022/08/16 18:57:51;;;;;;;0.20;0.00;;;28.20;99.90;;;;;;26169462;22;20191;-70
2022/08/16 19:07:56;;;;;;;0.20;0.00;;;27.90;99.90;;;;;;26143418;22;20538;-69
2022/08/16 19:18:00;;;;;;;0.20;0.00;;;27.80;99.90;;;;;;26169851;22;20215;-69
2022/08/16 19:28:05;;;;;;;0.20;0.00;;;27.70;99.90;;;;;;26173714;22;20549;-69
2022/08/16 19:38:23;;;;;;;0.20;0.00;;;27.40;99.90;;;;;;26172497;22;20183;-69
2022/08/16 19:48:28;;;;;;;0.20;0.00;;;27.40;99.90;;;;;;26170086;22;20167;-67
2022/08/16 19:58:32;;;;;;;0.20;0.00;;;27.40;99.90;;;;;;26170319;22;20194;-69
2022/08/16 20:08:37;;;;;;;0.20;0.00;;;27.00;99.90;;;;;;26146070;22;20194;-69
2022/08/16 20:18:41;;;;;;;0.20;0.00;;;26.60;99.90;;;;;;26171746;22;20183;-69
2022/08/16 20:28:46;;;;;;;0.20;0.00;;;26.70;99.90;;;;;;26145687;22;20164;-69
2022/08/16 20:38:58;;;;;;;0.20;0.00;;;26.30;99.90;;;;;;26165544;22;20198;-69
2022/08/16 20:49:04;;;;;;;0.20;0.00;;;26.00;99.90;;;;;;26167983;22;20166;-69
2022/08/16 20:59:11;;;;;;;0.20;0.00;;;26.00;99.90;;;;;;26168811;22;20179;-70
2022/08/16 21:09:16;;;;;;;0.20;0.10;;;25.60;99.90;;;;;;26170148;22;20191;-68
2022/08/16 21:19:21;;;;;;;0.20;0.00;;;25.60;99.90;;;;;;26167724;22;20180;-67
2022/08/16 21:29:28;;;;;;;0.20;0.00;;;25.60;99.90;;;;;;26169377;22;20159;-66
2022/08/16 21:39:45;;;;;;;0.20;0.00;;;25.60;99.90;;;;;;26169113;22;20191;-68
2022/08/16 21:49:50;;;;;;;0.20;0.00;;;25.60;99.90;;;;;;26141132;22;20159;-69
2022/08/16 21:59:55;;;;;;;0.20;0.00;;;25.40;99.90;;;;;;26168879;22;20190;-68
2022/08/16 22:10:01;;;;;;;0.20;0.10;;;25.40;99.90;;;;;;26173526;22;20198;-69
2022/08/16 22:20:27;;;;;;;0.20;0.00;;;25.30;99.90;;;;;;26179143;22;20187;-70
2022/08/16 22:30:32;;;;;;;0.20;0.00;;;25.40;99.90;;;;;;26177747;22;20254;-68
2022/08/16 22:40:38;;;;;;;0.20;0.00;;;25.50;99.90;;;;;;26151492;22;20183;-68
2022/08/16 22:50:43;;;;;;;0.20;0.00;;;25.50;99.90;;;;;;26151962;22;20167;-68
2022/08/16 23:00:47;;;;;;;0.20;0.00;;;25.40;99.90;;;;;;26176230;22;20187;-69
2022/08/16 23:10:52;;;;;;;0.20;0.00;;;25.40;99.90;;;;;;26174871;22;20199;-69
2022/08/16 23:20:58;;;;;;;0.20;0.00;;;25.60;99.90;;;;;;26146995;22;20237;-70
2022/08/16 23:31:05;;;;;;;0.20;0.00;;;25.40;99.90;;;;;;26147991;22;20171;-68
2022/08/16 23:41:12;;;;;;;0.20;0.03;;;25.40;99.90;;;;;;26146926;22;20187;-70
2022/08/16 23:51:18;;;;;;;0.20;0.00;;;25.20;99.90;;;;;;26149623;22;20239;-70
